logo
Search for airport 
image banner adimage banner adimage banner ad
image banner ad

FAPN - Pilanesberg International

Located in Mogwase, South Africa

ICAO - FAPN, IATA - NTY

Data provided by Airmate  

General information

Coordinates: S25°20'8" E27°10'18"
Elevation is 3412 feet MSL.
Magnetic variation is -17° East
View others Airports in North-West

Operational data

Special qualification required
Current time UTC:
Current local time:
Weather at : - ( 0 km )
METAR: PFWS 151011Z AUTO 24004KT 3SM BR CLR M04/M05 A3038 RMK AO2 FZRANO
View NOTAMs / SUP AIP / TFR affecting this airport [VIEW]
Communications frequencies: [VIEW]

Runways:

RWY identifierQFULength (ft)Width (ft)SurfaceLDA (ft)
0537°897796ASPH9022
23217°897796ASPH9022

Airport contact information

Address: Mogwase South Africa

Satellite view of FAPN